Time;durP1;ratioP1;P1;durP2;ratioP2;P2;SDS_P1;SDS_P2;PMS_P1;PMS_P2;Temp;Humidity;BMP_temperature;BMP_pressure;BME280_temperature;BME280_humidity;BME280_pressure;Samples;Min_cycle;Max_cycle;Signal;HPM_P1;HPM_P2
2021/09/15 00:00:05;;;;;;;23.23;20.77;;;19.30;90.10;;;;;;5008047;28;20037;-78
2021/09/15 00:02:31;;;;;;;23.55;21.08;;;19.20;90.20;;;;;;5023030;28;20025;-74
2021/09/15 00:04:56;;;;;;;22.73;20.30;;;19.20;90.20;;;;;;5025117;28;20091;-75
2021/09/15 00:07:22;;;;;;;21.65;19.30;;;19.30;90.20;;;;;;5020127;28;20072;-75
2021/09/15 00:09:48;;;;;;;23.95;21.33;;;19.20;90.20;;;;;;5027525;28;20523;-75
2021/09/15 00:12:13;;;;;;;23.67;19.77;;;19.30;90.30;;;;;;5022290;28;20113;-75
2021/09/15 00:14:39;;;;;;;25.67;23.02;;;19.30;90.20;;;;;;5026373;28;20030;-76
2021/09/15 00:17:05;;;;;;;25.55;21.90;;;19.30;90.20;;;;;;5001331;28;20030;-75
2021/09/15 00:19:30;;;;;;;22.42;20.13;;;19.30;90.20;;;;;;5022411;28;20038;-76
2021/09/15 00:21:56;;;;;;;23.15;20.42;;;19.30;90.20;;;;;;5008414;28;20041;-75
2021/09/15 00:24:22;;;;;;;23.25;20.88;;;19.30;90.10;;;;;;5004911;28;20046;-75
2021/09/15 00:26:48;;;;;;;21.92;19.38;;;19.20;90.10;;;;;;5029135;28;20508;-76
2021/09/15 00:29:13;;;;;;;21.25;18.77;;;19.20;90.10;;;;;;5023575;28;20022;-74
2021/09/15 00:31:39;;;;;;;23.50;20.67;;;19.10;90.10;;;;;;5018551;28;20088;-75
2021/09/15 00:34:05;;;;;;;23.00;20.58;;;19.10;90.20;;;;;;5027411;28;20116;-78
2021/09/15 00:36:30;;;;;;;23.98;21.25;;;19.10;90.20;;;;;;5010250;28;20077;-74
2021/09/15 00:38:56;;;;;;;22.35;20.05;;;19.10;90.20;;;;;;5029767;28;20029;-75
2021/09/15 00:41:22;;;;;;;21.67;19.38;;;19.10;90.20;;;;;;5006408;28;20041;-74
2021/09/15 00:44:01;;;;;;;24.35;20.05;;;19.00;90.30;;;;;;5029292;28;20041;-75
2021/09/15 00:46:28;;;;;;;22.73;20.33;;;19.10;90.30;;;;;;5025055;28;20034;-75
2021/09/15 00:48:54;;;;;;;25.33;21.50;;;19.00;90.30;;;;;;5026362;28;20033;-75
2021/09/15 00:51:20;;;;;;;23.98;21.25;;;19.00;90.30;;;;;;5026128;28;20045;-75
2021/09/15 00:53:47;;;;;;;22.88;20.45;;;19.00;90.20;;;;;;5027824;28;20029;-76
2021/09/15 00:56:12;;;;;;;27.33;22.08;;;19.00;90.10;;;;;;5020390;28;20026;-76
2021/09/15 00:58:38;;;;;;;23.02;20.73;;;19.00;90.10;;;;;;5010703;28;20201;-76
2021/09/15 01:01:04;;;;;;;24.00;21.40;;;19.00;90.10;;;;;;5026889;28;20469;-74
2021/09/15 01:03:30;;;;;;;22.98;20.52;;;18.90;90.20;;;;;;5021885;28;20083;-75
2021/09/15 01:05:56;;;;;;;25.77;23.08;;;18.90;90.20;;;;;;5008086;28;20068;-75
2021/09/15 01:08:23;;;;;;;26.40;23.65;;;18.90;90.20;;;;;;5023158;28;20065;-76
2021/09/15 01:10:49;;;;;;;25.45;22.38;;;18.90;90.20;;;;;;5008557;28;20080;-76
2021/09/15 01:13:15;;;;;;;26.67;23.80;;;19.00;90.30;;;;;;5025127;28;20042;-76
2021/09/15 01:15:40;;;;;;;28.55;25.33;;;18.90;90.30;;;;;;5026565;28;20380;-76
2021/09/15 01:18:13;;;;;;;26.27;23.52;;;18.90;90.30;;;;;;5027397;28;20048;-79
2021/09/15 01:20:39;;;;;;;25.73;22.55;;;19.00;90.30;;;;;;5023533;28;20039;-76
2021/09/15 01:23:05;;;;;;;25.08;22.48;;;18.90;90.30;;;;;;5018477;28;20464;-74
2021/09/15 01:25:30;;;;;;;27.38;24.42;;;18.90;90.30;;;;;;5024594;28;20025;-74
2021/09/15 01:27:56;;;;;;;28.45;24.27;;;18.90;90.30;;;;;;5022358;28;20057;-75
2021/09/15 01:30:22;;;;;;;27.50;24.45;;;18.90;90.20;;;;;;5007238;28;20081;-75
2021/09/15 01:32:47;;;;;;;26.20;23.42;;;18.90;90.30;;;;;;5011951;28;20041;-77
2021/09/15 01:35:13;;;;;;;28.13;25.10;;;18.80;90.30;;;;;;5019657;28;20117;-76
2021/09/15 01:37:39;;;;;;;26.95;24.00;;;18.80;90.40;;;;;;5023092;28;20049;-74
2021/09/15 01:40:05;;;;;;;26.30;23.50;;;18.80;90.50;;;;;;5004916;28;20029;-78
2021/09/15 01:42:31;;;;;;;27.98;25.00;;;18.90;90.60;;;;;;5010204;28;20109;-74
2021/09/15 01:44:57;;;;;;;27.90;25.00;;;18.90;90.60;;;;;;5024132;28;20116;-78
2021/09/15 01:47:23;;;;;;;30.55;26.98;;;18.80;90.70;;;;;;5018985;28;20756;-74
2021/09/15 01:49:49;;;;;;;28.85;25.75;;;18.80;90.70;;;;;;5028301;28;20457;-75
2021/09/15 01:52:16;;;;;;;27.00;23.95;;;18.80;90.80;;;;;;5022484;28;20022;-78
2021/09/15 01:54:43;;;;;;;26.23;23.52;;;18.90;90.80;;;;;;5027286;28;20030;-75
2021/09/15 01:57:09;;;;;;;29.05;26.15;;;18.90;90.80;;;;;;5024149;28;20022;-75
2021/09/15 01:59:35;;;;;;;27.30;24.52;;;18.80;90.80;;;;;;5021090;28;20095;-77
2021/09/15 02:02:00;;;;;;;26.27;23.55;;;18.80;90.80;;;;;;5019059;28;20761;-76
2021/09/15 02:04:26;;;;;;;25.67;22.90;;;18.80;90.80;;;;;;5017444;28;20081;-75
2021/09/15 02:06:52;;;;;;;24.67;22.17;;;18.80;90.80;;;;;;5024892;28;20477;-78
2021/09/15 02:09:18;;;;;;;27.55;24.70;;;18.80;90.80;;;;;;5022250;28;20116;-77
2021/09/15 02:11:44;;;;;;;27.85;24.92;;;18.80;90.90;;;;;;5024626;28;20033;-76
2021/09/15 02:14:10;;;;;;;26.45;23.65;;;18.80;91.00;;;;;;5006512;28;20160;-76
2021/09/15 02:16:36;;;;;;;26.27;23.45;;;18.80;90.90;;;;;;5023211;28;20041;-76
2021/09/15 02:19:02;;;;;;;27.40;24.60;;;18.80;90.90;;;;;;5021278;28;20401;-76
2021/09/15 02:21:28;;;;;;;28.17;25.13;;;18.80;90.90;;;;;;5025782;28;20037;-75
2021/09/15 02:23:55;;;;;;;28.27;25.35;;;18.80;91.00;;;;;;5025493;28;20376;-75
2021/09/15 02:26:21;;;;;;;32.72;29.40;;;18.70;91.00;;;;;;5025501;28;20042;-75
2021/09/15 02:28:47;;;;;;;33.25;29.20;;;18.70;91.00;;;;;;5005341;28;20046;-75
2021/09/15 02:31:13;;;;;;;32.28;28.90;;;18.70;91.00;;;;;;5021897;28;20049;-75
2021/09/15 02:33:39;;;;;;;33.08;29.60;;;18.70;91.10;;;;;;5019831;28;20038;-75
2021/09/15 02:36:04;;;;;;;35.25;31.58;;;18.70;91.00;;;;;;5022212;28;20488;-75
2021/09/15 02:38:30;;;;;;;35.58;31.42;;;18.70;91.00;;;;;;5005988;28;20030;-76
2021/09/15 02:40:56;;;;;;;35.65;31.92;;;18.70;91.10;;;;;;5007129;28;20079;-76
2021/09/15 02:43:22;;;;;;;34.63;30.95;;;18.70;91.00;;;;;;5004401;28;20038;-75
2021/09/15 02:45:48;;;;;;;36.85;32.92;;;18.70;90.90;;;;;;5020932;28;20100;-74
2021/09/15 02:48:13;;;;;;;43.85;37.33;;;18.70;90.90;;;;;;5023385;28;20061;-74
2021/09/15 02:50:39;;;;;;;46.38;41.35;;;18.70;90.80;;;;;;5024610;28;20045;-75
2021/09/15 02:53:05;;;;;;;53.72;45.88;;;18.70;90.80;;;;;;5019351;28;20138;-74
2021/09/15 02:55:30;;;;;;;53.25;45.58;;;18.60;90.70;;;;;;5023562;28;20522;-74
2021/09/15 02:57:56;;;;;;;55.60;45.50;;;18.60;90.90;;;;;;5023782;28;20449;-74
2021/09/15 03:00:22;;;;;;;53.47;47.00;;;18.60;90.90;;;;;;5018366;28;20469;-75
2021/09/15 03:02:47;;;;;;;49.97;41.85;;;18.60;90.80;;;;;;5008511;28;20021;-75
2021/09/15 03:05:13;;;;;;;49.95;44.47;;;18.60;90.90;;;;;;5008965;28;20445;-75
2021/09/15 03:07:39;;;;;;;52.88;45.65;;;18.60;90.90;;;;;;5006939;28;20034;-76
2021/09/15 03:10:06;;;;;;;57.65;47.72;;;18.60;90.90;;;;;;5020742;28;20473;-76
2021/09/15 03:12:33;;;;;;;50.03;44.42;;;18.60;90.80;;;;;;5007455;28;20460;-75
2021/09/15 03:14:58;;;;;;;51.40;44.92;;;18.60;90.70;;;;;;5021757;28;20037;-76
2021/09/15 03:17:24;;;;;;;53.67;47.70;;;18.60;90.70;;;;;;5038483;28;20018;-78
2021/09/15 03:19:50;;;;;;;54.55;48.53;;;18.60;90.80;;;;;;5047659;28;20037;-79
2021/09/15 03:22:15;;;;;;;53.40;46.78;;;18.60;90.70;;;;;;5037711;28;20034;-78
2021/09/15 03:24:41;;;;;;;54.78;48.65;;;18.60;90.60;;;;;;5023264;28;20415;-76
2021/09/15 03:27:07;;;;;;;52.83;45.63;;;18.60;90.50;;;;;;5021375;28;20163;-75
2021/09/15 03:29:33;;;;;;;55.63;46.92;;;18.60;90.50;;;;;;5023107;28;20030;-74
2021/09/15 03:31:59;;;;;;;57.20;47.28;;;18.60;90.30;;;;;;5007358;28;20404;-74
2021/09/15 03:34:25;;;;;;;57.00;49.40;;;18.50;90.40;;;;;;5017301;28;20042;-75
2021/09/15 03:36:51;;;;;;;59.92;49.25;;;18.40;90.50;;;;;;5025797;28;20412;-76
2021/09/15 03:39:17;;;;;;;57.78;48.28;;;18.40;90.60;;;;;;5008556;28;20539;-75
2021/09/15 03:41:44;;;;;;;58.80;50.20;;;18.40;90.50;;;;;;5008274;28;20116;-74
2021/09/15 03:44:09;;;;;;;56.05;48.13;;;18.40;90.60;;;;;;5021299;28;20037;-74
2021/09/15 03:46:35;;;;;;;55.25;48.55;;;18.30;90.60;;;;;;5019284;28;20496;-74
2021/09/15 03:49:01;;;;;;;57.58;51.25;;;18.30;90.70;;;;;;5008006;28;20025;-77
2021/09/15 03:51:27;;;;;;;61.63;51.85;;;18.40;90.70;;;;;;5021903;28;20140;-74
2021/09/15 03:53:53;;;;;;;60.30;51.17;;;18.40;90.70;;;;;;5023524;28;20480;-75
2021/09/15 03:56:19;;;;;;;60.22;52.28;;;18.40;90.80;;;;;;5007342;28;20088;-75
2021/09/15 03:58:44;;;;;;;76.43;57.47;;;18.40;90.70;;;;;;5021362;28;20113;-74
2021/09/15 04:01:10;;;;;;;75.38;55.15;;;18.40;90.90;;;;;;5022485;28;20314;-74
2021/09/15 04:03:37;;;;;;;76.32;56.65;;;18.40;91.00;;;;;;5021297;28;20048;-74
2021/09/15 04:06:03;;;;;;;70.72;55.35;;;18.40;91.10;;;;;;5022474;28;20040;-74
2021/09/15 04:08:29;;;;;;;71.63;56.25;;;18.40;91.10;;;;;;5021548;28;20029;-74
2021/09/15 04:10:55;;;;;;;68.80;53.95;;;18.30;91.10;;;;;;5023767;28;20096;-74
2021/09/15 04:13:20;;;;;;;69.38;53.10;;;18.40;91.20;;;;;;5015944;28;23173;-73
2021/09/15 04:15:46;;;;;;;66.95;50.33;;;18.40;91.20;;;;;;5022815;28;20041;-73
2021/09/15 04:18:13;;;;;;;71.78;55.90;;;18.40;91.20;;;;;;5003810;28;20505;-74
2021/09/15 04:20:39;;;;;;;69.45;55.55;;;18.40;91.30;;;;;;5018035;28;20055;-74
2021/09/15 04:23:12;;;;;;;70.22;54.13;;;18.40;91.20;;;;;;5024133;28;20068;-74
2021/09/15 04:33:38;;;;;;;76.68;57.85;;;18.40;91.20;;;;;;5023857;28;20149;-75
2021/09/15 04:36:04;;;;;;;74.93;57.13;;;18.40;91.10;;;;;;5023993;28;20112;-75
2021/09/15 04:38:29;;;;;;;67.78;53.00;;;18.40;91.00;;;;;;5027239;28;20112;-75
2021/09/15 04:40:55;;;;;;;69.43;52.90;;;18.40;91.00;;;;;;5006668;28;20041;-76
2021/09/15 04:43:21;;;;;;;79.30;58.03;;;18.40;91.00;;;;;;5007508;28;20091;-75
2021/09/15 04:45:47;;;;;;;73.13;57.38;;;18.40;91.00;;;;;;5025487;28;20072;-75
2021/09/15 04:48:12;;;;;;;80.80;60.80;;;18.40;90.90;;;;;;5020007;28;20026;-75
2021/09/15 04:50:39;;;;;;;78.00;59.38;;;18.40;90.80;;;;;;5025446;28;20530;-75
2021/09/15 04:53:04;;;;;;;73.68;55.78;;;18.40;90.90;;;;;;5011046;28;20097;-78
2021/09/15 04:55:32;;;;;;;89.70;63.35;;;18.40;90.90;;;;;;5026849;28;20525;-75
2021/09/15 04:57:58;;;;;;;75.90;58.33;;;18.40;90.80;;;;;;5021035;28;20040;-76
2021/09/15 05:00:23;;;;;;;80.53;59.50;;;18.40;90.80;;;;;;5000403;28;20407;-75
2021/09/15 05:02:49;;;;;;;81.53;60.88;;;18.40;90.80;;;;;;5017755;28;20041;-76
2021/09/15 05:05:14;;;;;;;89.13;63.80;;;18.40;90.90;;;;;;5025907;28;20037;-75
2021/09/15 05:07:40;;;;;;;83.68;63.60;;;18.30;90.80;;;;;;5020196;28;20147;-75
2021/09/15 05:10:06;;;;;;;86.07;61.72;;;18.30;91.00;;;;;;5005662;28;20132;-76
2021/09/15 05:12:32;;;;;;;89.18;60.75;;;18.30;90.90;;;;;;5019229;28;20075;-77
2021/09/15 05:14:58;;;;;;;87.70;60.50;;;18.30;91.00;;;;;;5019882;28;20092;-75
2021/09/15 05:17:24;;;;;;;93.57;64.30;;;18.30;90.90;;;;;;5017009;28;20038;-75
2021/09/15 05:19:50;;;;;;;98.43;63.45;;;18.20;91.00;;;;;;5017372;28;20561;-75
2021/09/15 05:22:16;;;;;;;89.00;63.10;;;18.20;91.00;;;;;;5022943;28;20424;-74
2021/09/15 05:24:42;;;;;;;89.80;62.97;;;18.20;91.10;;;;;;5021309;28;20041;-75
2021/09/15 05:27:07;;;;;;;94.72;66.20;;;18.20;91.10;;;;;;5022837;28;20059;-74
2021/09/15 05:29:33;;;;;;;88.35;62.25;;;18.10;91.10;;;;;;5007844;28;20052;-74
2021/09/15 05:31:59;;;;;;;96.50;64.07;;;18.10;91.20;;;;;;5023693;28;20034;-75
2021/09/15 05:34:25;;;;;;;88.88;61.45;;;18.10;91.20;;;;;;5023400;28;20053;-74
2021/09/15 05:36:50;;;;;;;94.95;63.28;;;18.10;91.30;;;;;;5023695;28;20095;-74
2021/09/15 05:39:16;;;;;;;94.97;63.63;;;18.00;91.40;;;;;;5022080;28;20033;-76
2021/09/15 05:41:42;;;;;;;90.25;62.78;;;18.00;91.30;;;;;;5008845;28;20381;-74
2021/09/15 05:44:08;;;;;;;84.05;59.78;;;18.00;91.40;;;;;;5019206;28;20092;-74
2021/09/15 05:46:34;;;;;;;88.72;61.40;;;18.00;91.40;;;;;;5022869;28;20469;-75
2021/09/15 05:48:59;;;;;;;84.13;59.70;;;18.00;91.40;;;;;;5024837;28;20480;-74
2021/09/15 05:51:25;;;;;;;91.05;62.45;;;18.00;91.50;;;;;;5022966;28;20418;-76
2021/09/15 05:53:51;;;;;;;84.40;59.38;;;18.00;91.50;;;;;;5024834;28;20039;-74
2021/09/15 05:56:16;;;;;;;80.65;57.75;;;18.00;91.50;;;;;;5001680;28;20033;-74
2021/09/15 05:58:42;;;;;;;76.22;56.78;;;18.00;91.40;;;;;;5023822;28;20527;-75
2021/09/15 06:01:08;;;;;;;79.82;59.00;;;18.00;91.30;;;;;;5008539;28;20033;-74
2021/09/15 06:03:33;;;;;;;87.40;63.47;;;18.10;91.40;;;;;;5020570;28;20064;-75
2021/09/15 06:05:59;;;;;;;79.50;57.67;;;18.10;91.30;;;;;;5005690;28;20034;-77
2021/09/15 06:08:25;;;;;;;80.95;60.05;;;18.10;91.40;;;;;;5018752;28;20083;-74
2021/09/15 06:10:50;;;;;;;79.32;59.10;;;18.10;91.30;;;;;;5025177;28;20116;-77
2021/09/15 06:13:16;;;;;;;85.72;62.88;;;18.10;91.30;;;;;;5007644;28;20497;-76
2021/09/15 06:15:42;;;;;;;79.40;60.22;;;18.10;91.20;;;;;;5026197;28;20037;-74
2021/09/15 06:18:08;;;;;;;80.88;57.60;;;18.10;91.20;;;;;;5019298;28;20043;-75
2021/09/15 06:20:34;;;;;;;76.28;60.08;;;18.20;91.20;;;;;;5019871;28;20029;-74
2021/09/15 06:22:59;;;;;;;79.25;60.45;;;18.20;91.10;;;;;;5025126;28;20125;-73
2021/09/15 06:25:27;;;;;;;76.53;59.67;;;18.30;90.90;;;;;;5022471;28;20056;-75
2021/09/15 06:27:54;;;;;;;72.78;57.67;;;18.30;90.70;;;;;;5027325;28;20026;-76
2021/09/15 06:30:21;;;;;;;65.60;53.88;;;18.40;90.70;;;;;;5003526;28;20052;-75
2021/09/15 06:32:46;;;;;;;69.25;53.05;;;18.40;90.20;;;;;;5026157;28;20130;-75
2021/09/15 06:35:13;;;;;;;62.05;51.05;;;18.40;90.10;;;;;;5008293;28;20527;-75
2021/09/15 06:37:40;;;;;;;58.85;49.47;;;18.50;89.80;;;;;;5017130;28;20041;-75
2021/09/15 06:40:07;;;;;;;58.88;49.63;;;18.60;89.60;;;;;;5017224;28;20061;-76
2021/09/15 06:42:32;;;;;;;56.38;47.45;;;18.60;89.30;;;;;;5021300;28;20518;-75
2021/09/15 06:44:58;;;;;;;52.03;43.38;;;18.70;89.10;;;;;;5023846;28;20061;-75
2021/09/15 06:47:23;;;;;;;54.47;45.17;;;18.90;89.00;;;;;;5021003;28;20037;-76
2021/09/15 06:49:49;;;;;;;51.10;43.42;;;18.90;87.80;;;;;;5019312;28;20034;-76
2021/09/15 06:52:15;;;;;;;47.35;40.42;;;18.90;87.70;;;;;;5018604;28;20060;-76
2021/09/15 06:54:40;;;;;;;61.10;40.63;;;18.90;87.20;;;;;;5004323;28;20181;-75
2021/09/15 06:57:06;;;;;;;45.97;39.88;;;18.80;87.00;;;;;;5022056;28;20033;-76
2021/09/15 06:59:32;;;;;;;45.78;39.00;;;18.70;87.40;;;;;;5016976;28;20530;-76
2021/09/15 07:01:57;;;;;;;47.90;38.80;;;18.60;87.40;;;;;;5023729;28;20429;-73
2021/09/15 07:04:23;;;;;;;47.70;38.47;;;18.70;87.60;;;;;;5003141;28;20034;-75
2021/09/15 07:06:49;;;;;;;46.13;37.67;;;18.70;87.30;;;;;;5024373;28;20488;-74
2021/09/15 07:09:14;;;;;;;42.45;36.35;;;18.80;87.10;;;;;;5001588;28;20034;-73
2021/09/15 07:11:40;;;;;;;43.33;36.50;;;18.70;87.00;;;;;;5003203;28;20045;-73
2021/09/15 07:14:06;;;;;;;39.15;34.15;;;18.70;87.10;;;;;;5004074;28;20038;-73
2021/09/15 07:16:32;;;;;;;41.10;36.00;;;18.60;86.90;;;;;;5020650;28;20045;-73
2021/09/15 07:19:01;;;;;;;40.40;35.05;;;18.70;86.80;;;;;;5008930;28;20437;-73
2021/09/15 07:21:28;;;;;;;38.63;32.70;;;18.80;86.60;;;;;;5022360;28;20052;-73
2021/09/15 07:23:54;;;;;;;39.88;34.05;;;18.80;86.50;;;;;;5017508;28;20041;-78
2021/09/15 07:26:20;;;;;;;34.63;30.45;;;18.90;86.30;;;;;;5016533;28;20026;-77
2021/09/15 07:28:46;;;;;;;37.45;32.67;;;18.90;86.00;;;;;;5002295;28;20048;-78
2021/09/15 07:31:11;;;;;;;37.25;31.08;;;18.90;85.90;;;;;;5020430;28;20048;-72
2021/09/15 07:33:37;;;;;;;37.30;31.00;;;18.90;85.70;;;;;;5020895;28;20623;-74
2021/09/15 07:36:04;;;;;;;39.30;33.13;;;18.90;85.90;;;;;;5007266;28;20069;-72
2021/09/15 07:38:30;;;;;;;36.92;30.80;;;18.80;85.70;;;;;;5016640;28;20053;-74
2021/09/15 07:40:56;;;;;;;36.58;30.67;;;18.90;85.80;;;;;;5003094;28;20061;-72
2021/09/15 07:43:22;;;;;;;31.92;28.17;;;18.90;85.40;;;;;;5004741;28;20064;-75
2021/09/15 07:45:48;;;;;;;34.10;28.75;;;18.80;85.20;;;;;;5003074;28;20053;-71
2021/09/15 07:48:14;;;;;;;37.15;28.27;;;18.90;85.00;;;;;;5022043;28;20052;-71
2021/09/15 07:50:39;;;;;;;31.52;28.02;;;18.90;85.00;;;;;;5001826;28;20053;-73
2021/09/15 07:53:05;;;;;;;31.13;26.52;;;18.90;84.80;;;;;;5023396;28;20555;-72
2021/09/15 07:55:31;;;;;;;31.83;27.77;;;18.90;84.20;;;;;;5025447;28;20115;-71
2021/09/15 07:57:57;;;;;;;28.80;24.95;;;18.80;84.10;;;;;;5040426;28;20108;-72
2021/09/15 08:00:22;;;;;;;31.85;25.67;;;18.80;84.40;;;;;;5020585;28;20045;-73
2021/09/15 08:02:48;;;;;;;31.33;26.45;;;18.90;84.20;;;;;;5028756;28;20044;-71
2021/09/15 08:05:15;;;;;;;30.02;25.27;;;18.90;83.80;;;;;;5020023;28;20026;-72
2021/09/15 08:07:41;;;;;;;29.92;24.48;;;19.00;83.80;;;;;;5025915;28;20029;-72
2021/09/15 08:10:07;;;;;;;31.60;25.60;;;19.10;83.40;;;;;;5027739;28;20044;-73
2021/09/15 08:12:33;;;;;;;30.17;25.08;;;19.00;83.30;;;;;;5010908;28;20139;-70
2021/09/15 08:14:59;;;;;;;31.33;24.80;;;19.00;83.10;;;;;;5028165;28;20520;-71
2021/09/15 08:17:24;;;;;;;26.85;22.88;;;19.10;83.30;;;;;;5028088;28;20055;-72
2021/09/15 08:19:50;;;;;;;27.20;23.38;;;19.10;83.20;;;;;;5026884;28;20491;-73
2021/09/15 08:22:16;;;;;;;26.98;21.35;;;19.30;82.60;;;;;;5026561;28;20025;-75
2021/09/15 08:24:42;;;;;;;23.42;18.98;;;19.40;82.10;;;;;;5029161;28;20098;-72
2021/09/15 08:27:08;;;;;;;25.17;19.45;;;19.30;80.90;;;;;;5029234;28;20431;-71
2021/09/15 08:29:35;;;;;;;23.23;18.73;;;19.30;81.30;;;;;;5025072;28;20037;-71
2021/09/15 08:32:01;;;;;;;23.90;18.38;;;19.50;80.80;;;;;;5015424;28;20038;-71
2021/09/15 08:34:27;;;;;;;21.70;17.83;;;19.60;80.10;;;;;;5002155;28;20045;-72
2021/09/15 08:36:52;;;;;;;21.33;16.80;;;19.60;80.50;;;;;;5007115;28;20034;-71
2021/09/15 08:39:18;;;;;;;21.65;17.00;;;19.80;79.90;;;;;;5009545;28;20129;-71
2021/09/15 08:41:46;;;;;;;19.45;16.13;;;19.80;79.80;;;;;;5005112;28;20034;-71
2021/09/15 08:44:12;;;;;;;20.90;15.32;;;19.80;79.10;;;;;;5003827;28;20042;-71
2021/09/15 08:46:39;;;;;;;21.40;16.13;;;20.00;79.20;;;;;;5006865;28;20045;-71
2021/09/15 08:49:05;;;;;;;19.70;12.68;;;20.00;79.10;;;;;;5001803;28;20124;-73
2021/09/15 08:51:32;;;;;;;17.52;12.05;;;19.90;78.90;;;;;;5016993;28;20040;-71
2021/09/15 08:53:58;;;;;;;16.05;11.27;;;19.60;78.40;;;;;;5020788;28;20254;-73
2021/09/15 08:56:24;;;;;;;14.02;9.20;;;19.70;78.70;;;;;;5026299;28;20124;-71
2021/09/15 08:58:49;;;;;;;12.65;8.52;;;19.80;77.70;;;;;;5019852;28;20068;-71
2021/09/15 09:01:21;;;;;;;11.52;8.73;;;20.10;76.60;;;;;;5024261;28;20107;-72
2021/09/15 09:03:53;;;;;;;14.50;8.15;;;20.10;76.90;;;;;;5024710;28;20029;-72
2021/09/15 09:06:21;;;;;;;15.18;9.27;;;20.20;76.60;;;;;;5027905;28;20056;-71
2021/09/15 09:08:57;;;;;;;15.27;9.07;;;20.20;76.50;;;;;;5029437;28;20040;-73
2021/09/15 09:11:29;;;;;;;12.80;8.70;;;20.30;75.80;;;;;;5024207;28;20048;-72
2021/09/15 09:13:58;;;;;;;12.07;8.32;;;20.30;76.00;;;;;;5025452;28;20461;-71
2021/09/15 09:16:44;;;;;;;14.43;8.75;;;20.20;76.30;;;;;;5022481;28;20029;-70
2021/09/15 09:19:13;;;;;;;13.63;8.93;;;20.30;76.60;;;;;;5026015;28;20112;-73
2021/09/15 09:21:41;;;;;;;15.85;9.30;;;20.20;76.50;;;;;;5027036;28;20048;-72
2021/09/15 09:24:11;;;;;;;12.02;7.97;;;20.30;76.20;;;;;;5024516;28;20049;-70
2021/09/15 09:26:53;;;;;;;13.15;7.47;;;20.20;76.00;;;;;;5027761;28;20048;-70
2021/09/15 09:29:30;;;;;;;14.52;8.57;;;20.30;75.90;;;;;;5026256;28;20119;-71
2021/09/15 09:32:02;;;;;;;13.23;9.07;;;20.10;76.40;;;;;;5021414;28;20053;-71
2021/09/15 09:34:30;;;;;;;14.10;8.88;;;20.10;76.30;;;;;;5026385;28;20050;-77
2021/09/15 09:37:09;;;;;;;14.13;8.73;;;20.00;77.00;;;;;;5023440;28;20034;-71
2021/09/15 09:39:40;;;;;;;16.20;9.20;;;19.90;77.60;;;;;;5021534;28;20531;-73
2021/09/15 09:42:24;;;;;;;11.57;7.68;;;19.80;78.00;;;;;;5025541;28;20480;-76
2021/09/15 09:45:04;;;;;;;11.15;7.60;;;19.90;78.10;;;;;;5025431;28;20559;-72
2021/09/15 09:47:31;;;;;;;14.38;7.35;;;19.90;78.80;;;;;;5023800;28;20481;-73
2021/09/15 09:50:11;;;;;;;12.82;7.22;;;20.10;77.90;;;;;;5021558;28;20132;-71
2021/09/15 09:53:00;;;;;;;11.98;7.10;;;20.40;78.60;;;;;;5023996;28;20532;-71
2021/09/15 09:55:35;;;;;;;16.52;6.70;;;20.70;76.20;;;;;;5023059;28;20060;-73
2021/09/15 09:58:05;;;;;;;10.57;5.47;;;20.90;75.90;;;;;;5004362;28;20439;-74
2021/09/15 10:00:32;;;;;;;13.30;5.88;;;21.00;75.80;;;;;;5025340;28;20036;-72
2021/09/15 10:02:59;;;;;;;11.95;5.45;;;21.10;75.20;;;;;;5021324;28;20044;-77
2021/09/15 10:05:25;;;;;;;9.98;4.28;;;20.90;75.90;;;;;;5006125;28;20042;-70
2021/09/15 10:07:51;;;;;;;11.05;4.22;;;20.90;75.30;;;;;;5022969;28;20029;-70
2021/09/15 10:10:19;;;;;;;8.13;3.88;;;20.60;75.60;;;;;;5018481;28;20049;-72
2021/09/15 10:12:45;;;;;;;8.07;3.08;;;20.60;76.10;;;;;;5018142;28;20029;-72
2021/09/15 10:15:12;;;;;;;8.05;2.35;;;20.60;76.30;;;;;;5022915;28;20473;-74
2021/09/15 10:17:44;;;;;;;8.02;2.42;;;20.60;76.70;;;;;;5024840;28;20041;-75
2021/09/15 10:20:12;;;;;;;8.07;2.20;;;20.60;76.30;;;;;;5005927;28;20037;-71
2021/09/15 10:22:41;;;;;;;10.52;2.53;;;20.60;76.70;;;;;;5024998;28;20037;-70
2021/09/15 10:25:08;;;;;;;7.75;2.28;;;20.60;76.30;;;;;;5018864;28;20037;-70
2021/09/15 10:27:57;;;;;;;9.80;2.40;;;20.60;76.20;;;;;;5016522;28;20112;-71
2021/09/15 10:30:38;;;;;;;10.48;2.78;;;20.70;76.10;;;;;;5019485;28;20041;-70
2021/09/15 10:33:04;;;;;;;7.60;2.08;;;20.90;76.50;;;;;;5020398;28;20030;-75
2021/09/15 10:35:46;;;;;;;8.00;2.10;;;21.00;74.20;;;;;;5018203;28;20550;-71
2021/09/15 10:38:13;;;;;;;6.82;1.90;;;21.50;73.70;;;;;;5016594;28;20103;-75
2021/09/15 10:40:40;;;;;;;8.23;1.77;;;21.70;71.10;;;;;;5015912;28;20125;-71
2021/09/15 10:43:42;;;;;;;7.47;1.75;;;21.60;71.10;;;;;;5003479;28;20040;-71
2021/09/15 10:46:19;;;;;;;7.60;1.85;;;21.70;71.50;;;;;;5020994;28;20075;-70
2021/09/15 10:48:45;;;;;;;9.63;2.08;;;21.80;71.40;;;;;;5020040;28;20026;-71
2021/09/15 10:51:20;;;;;;;8.43;1.90;;;21.80;71.40;;;;;;5017144;28;20046;-70
2021/09/15 10:53:46;;;;;;;6.18;2.25;;;21.50;70.60;;;;;;5017116;28;20079;-70
2021/09/15 10:56:35;;;;;;;9.65;2.25;;;21.30;72.20;;;;;;5021447;28;20029;-70
2021/09/15 10:59:01;;;;;;;10.82;2.25;;;21.30;72.20;;;;;;5021686;28;20037;-71
2021/09/15 11:01:39;;;;;;;8.73;1.55;;;21.20;72.40;;;;;;5019002;28;20042;-71
2021/09/15 11:04:04;;;;;;;6.55;1.70;;;21.10;72.60;;;;;;5012535;28;20026;-73
2021/09/15 11:06:35;;;;;;;7.18;1.35;;;20.90;73.00;;;;;;5013372;28;20397;-71
2021/09/15 11:09:01;;;;;;;6.45;1.50;;;21.20;72.30;;;;;;4999518;28;20096;-69
2021/09/15 11:11:27;;;;;;;6.45;1.40;;;21.60;72.30;;;;;;5014490;28;20428;-71
2021/09/15 11:14:01;;;;;;;6.90;1.50;;;21.80;70.70;;;;;;5013047;28;20084;-72
2021/09/15 11:16:29;;;;;;;11.02;1.55;;;21.80;71.20;;;;;;5015829;28;20080;-71
2021/09/15 11:19:06;;;;;;;8.18;1.75;;;21.90;70.40;;;;;;5015621;28;20052;-71
2021/09/15 11:21:40;;;;;;;5.47;1.75;;;21.60;70.20;;;;;;5016423;28;20048;-73
2021/09/15 11:24:11;;;;;;;9.20;2.15;;;21.60;70.60;;;;;;5011451;28;20064;-70
2021/09/15 11:27:17;;;;;;;9.27;1.70;;;21.60;71.00;;;;;;5005625;28;20133;-70
2021/09/15 11:29:51;;;;;;;6.80;1.70;;;21.80;71.00;;;;;;4989590;28;20602;-70
2021/09/15 11:32:18;;;;;;;5.40;1.40;;;21.70;70.20;;;;;;5014836;28;20507;-72
2021/09/15 11:34:52;;;;;;;8.13;1.60;;;21.40;71.10;;;;;;5005877;28;20064;-69
2021/09/15 11:37:19;;;;;;;8.07;1.48;;;21.50;69.80;;;;;;4994648;28;20041;-70
2021/09/15 11:40:00;;;;;;;6.25;1.58;;;21.30;70.40;;;;;;5017814;28;20069;-70
2021/09/15 11:42:35;;;;;;;4.15;1.20;;;21.00;70.00;;;;;;5021206;28;20038;-70
2021/09/15 11:45:22;;;;;;;4.63;1.67;;;20.80;69.90;;;;;;5022185;28;20038;-69
2021/09/15 11:47:53;;;;;;;5.25;1.20;;;20.70;71.20;;;;;;5006873;28;20175;-70
2021/09/15 11:50:18;;;;;;;8.20;2.05;;;20.80;71.60;;;;;;5021733;28;20045;-70
2021/09/15 11:52:49;;;;;;;3.75;1.25;;;21.00;71.70;;;;;;5020605;28;20424;-70
2021/09/15 11:55:16;;;;;;;7.28;1.30;;;21.10;72.10;;;;;;5026169;28;20037;-70
2021/09/15 11:57:46;;;;;;;4.97;1.30;;;21.30;71.20;;;;;;5019460;28;20539;-73
2021/09/15 12:00:12;;;;;;;6.53;2.13;;;21.20;70.80;;;;;;5024717;28;20158;-73
2021/09/15 12:02:46;;;;;;;6.15;2.17;;;21.30;70.40;;;;;;5019919;28;20068;-70
2021/09/15 12:05:12;;;;;;;5.47;1.23;;;21.30;70.30;;;;;;5026622;28;20098;-71
2021/09/15 12:07:40;;;;;;;4.88;1.63;;;21.30;70.20;;;;;;5002219;28;20049;-73
2021/09/15 12:10:11;;;;;;;5.75;1.63;;;21.30;70.70;;;;;;5020239;28;20125;-70
2021/09/15 12:12:37;;;;;;;7.38;1.70;;;21.40;69.40;;;;;;5018043;28;20121;-72
2021/09/15 12:15:06;;;;;;;10.18;2.33;;;21.30;69.70;;;;;;5023690;28;20060;-73
2021/09/15 12:17:32;;;;;;;5.22;1.27;;;21.10;70.50;;;;;;5018892;28;20049;-70
2021/09/15 12:19:58;;;;;;;5.85;1.10;;;21.00;72.00;;;;;;5022764;28;20071;-72
2021/09/15 12:22:28;;;;;;;6.63;1.50;;;20.70;73.70;;;;;;5024354;28;20461;-70
2021/09/15 12:25:09;;;;;;;4.78;1.35;;;20.60;73.70;;;;;;5018505;28;20080;-74
2021/09/15 12:27:35;;;;;;;6.97;1.38;;;20.60;73.40;;;;;;5024995;28;20033;-72
2021/09/15 12:30:22;;;;;;;3.80;1.00;;;20.50;74.00;;;;;;5021132;28;20034;-71
2021/09/15 12:32:55;;;;;;;8.77;1.58;;;20.60;74.00;;;;;;5023740;28;20116;-69
2021/09/15 12:35:24;;;;;;;5.70;1.10;;;20.40;73.50;;;;;;5025567;28;20048;-78
2021/09/15 12:38:00;;;;;;;6.78;1.42;;;20.40;74.00;;;;;;5026887;28;20061;-70
2021/09/15 12:40:26;;;;;;;7.65;1.42;;;20.40;72.80;;;;;;5020137;28;20065;-69